sensor_id;sensor_type;location;lat;lon;timestamp;pressure;altitude;pressure_sealevel;temperature;humidity
71643;BME280;59438;45.014;39.006;2023-05-03T00:00:50;102344.91;;;10.26;76.75
71643;BME280;59438;45.014;39.006;2023-05-03T00:03:17;102333.59;;;10.20;76.66
71643;BME280;59438;45.014;39.006;2023-05-03T00:05:43;102339.78;;;10.16;76.36
71643;BME280;59438;45.014;39.006;2023-05-03T00:08:09;102338.06;;;10.12;77.32
71643;BME280;59438;45.014;39.006;2023-05-03T00:10:36;102338.97;;;10.07;76.93
71643;BME280;59438;45.014;39.006;2023-05-03T00:13:02;102344.28;;;10.03;76.37
71643;BME280;59438;45.014;39.006;2023-05-03T00:15:28;102344.28;;;9.98;77.07
71643;BME280;59438;45.014;39.006;2023-05-03T00:17:56;102341.75;;;9.91;76.94
71643;BME280;59438;45.014;39.006;2023-05-03T00:20:23;102347.03;;;9.84;76.37
71643;BME280;59438;45.014;39.006;2023-05-03T00:22:49;102347.09;;;9.78;76.35
71643;BME280;59438;45.014;39.006;2023-05-03T00:25:15;102352.38;;;9.72;76.33
71643;BME280;59438;45.014;39.006;2023-05-03T00:27:42;102350.66;;;9.65;76.27
71643;BME280;59438;45.014;39.006;2023-05-03T00:30:09;102357.72;;;9.58;76.01
71643;BME280;59438;45.014;39.006;2023-05-03T00:32:35;102326.34;;;9.40;76.65
71643;BME280;59438;45.014;39.006;2023-05-03T00:35:03;102349.94;;;9.43;76.75
71643;BME280;59438;45.014;39.006;2023-05-03T00:37:29;102354.34;;;9.38;76.66
71643;BME280;59438;45.014;39.006;2023-05-03T00:39:56;102346.53;;;9.25;76.58
71643;BME280;59438;45.014;39.006;2023-05-03T00:42:22;102352.66;;;9.26;77.00
71643;BME280;59438;45.014;39.006;2023-05-03T00:44:49;102357.94;;;9.21;76.32
71643;BME280;59438;45.014;39.006;2023-05-03T00:47:15;102359.72;;;9.16;76.10
71643;BME280;59438;45.014;39.006;2023-05-03T00:49:42;102364.09;;;9.11;76.56
71643;BME280;59438;45.014;39.006;2023-05-03T00:52:10;102368.50;;;9.06;76.14
71643;BME280;59438;45.014;39.006;2023-05-03T00:54:37;102354.53;;;9.02;76.53
71643;BME280;59438;45.014;39.006;2023-05-03T00:57:04;102358.03;;;8.98;76.19
71643;BME280;59438;45.014;39.006;2023-05-03T00:59:31;102344.09;;;8.87;76.35
71643;BME280;59438;45.014;39.006;2023-05-03T01:01:58;102349.34;;;8.85;75.94
71643;BME280;59438;45.014;39.006;2023-05-03T01:04:24;102352.84;;;8.78;76.22
71643;BME280;59438;45.014;39.006;2023-05-03T01:06:57;102345.91;;;8.70;76.65
71643;BME280;59438;45.014;39.006;2023-05-03T01:09:33;102343.31;;;8.56;76.39
71643;BME280;59438;45.014;39.006;2023-05-03T01:12:19;102361.63;;;8.66;76.67
71643;BME280;59438;45.014;39.006;2023-05-03T01:14:55;102360.78;;;8.60;76.93
71643;BME280;59438;45.014;39.006;2023-05-03T01:17:27;102354.69;;;8.53;76.61
71643;BME280;59438;45.014;39.006;2023-05-03T01:19:57;102370.38;;;8.56;76.24
71643;BME280;59438;45.014;39.006;2023-05-03T01:22:38;102373.00;;;8.56;77.24
71643;BME280;59438;45.014;39.006;2023-05-03T01:25:10;102375.63;;;8.53;76.82
71643;BME280;59438;45.014;39.006;2023-05-03T01:27:38;102375.63;;;8.53;76.61
71643;BME280;59438;45.014;39.006;2023-05-03T01:30:06;102355.56;;;8.41;76.56
71643;BME280;59438;45.014;39.006;2023-05-03T01:32:44;102382.63;;;8.59;77.13
71643;BME280;59438;45.014;39.006;2023-05-03T01:35:16;102380.84;;;8.62;76.80
71643;BME280;59438;45.014;39.006;2023-05-03T01:37:46;102383.47;;;8.65;76.85
71643;BME280;59438;45.014;39.006;2023-05-03T01:40:15;102384.34;;;8.67;76.67
71643;BME280;59438;45.014;39.006;2023-05-03T01:42:43;102362.53;;;8.58;76.28
71643;BME280;59438;45.014;39.006;2023-05-03T01:45:10;102384.31;;;8.72;76.17
71643;BME280;59438;45.014;39.006;2023-05-03T01:47:37;102374.72;;;8.66;76.75
71643;BME280;59438;45.014;39.006;2023-05-03T01:50:04;102394.78;;;8.77;76.28
71643;BME280;59438;45.014;39.006;2023-05-03T01:52:30;102395.66;;;8.80;76.50
71643;BME280;59438;45.014;39.006;2023-05-03T01:54:56;102399.13;;;8.82;76.34
71643;BME280;59438;45.014;39.006;2023-05-03T01:57:24;102385.16;;;8.80;76.29
71643;BME280;59438;45.014;39.006;2023-05-03T01:59:50;102393.88;;;8.88;76.43
71643;BME280;59438;45.014;39.006;2023-05-03T02:02:17;102400.84;;;8.91;75.96
71643;BME280;59438;45.014;39.006;2023-05-03T02:04:43;102395.63;;;8.93;76.08
71643;BME280;59438;45.014;39.006;2023-05-03T02:07:09;102399.09;;;8.95;76.16
71643;BME280;59438;45.014;39.006;2023-05-03T02:09:36;102400.84;;;8.94;76.20
71643;BME280;59438;45.014;39.006;2023-05-03T02:12:02;102407.84;;;8.94;75.86
71643;BME280;59438;45.014;39.006;2023-05-03T02:14:30;102417.44;;;8.95;76.06
71643;BME280;59438;45.014;39.006;2023-05-03T02:16:57;102411.31;;;8.99;76.22
71643;BME280;59438;45.014;39.006;2023-05-03T02:19:23;102408.69;;;9.00;76.29
71643;BME280;59438;45.014;39.006;2023-05-03T02:21:49;102413.94;;;9.00;76.29
71643;BME280;59438;45.014;39.006;2023-05-03T02:24:16;102409.56;;;9.04;76.00
71643;BME280;59438;45.014;39.006;2023-05-03T02:26:42;102423.53;;;9.06;76.14
71643;BME280;59438;45.014;39.006;2023-05-03T02:29:08;102424.41;;;9.08;76.28
71643;BME280;59438;45.014;39.006;2023-05-03T02:31:36;102431.38;;;9.11;76.46
71643;BME280;59438;45.014;39.006;2023-05-03T02:34:02;102427.00;;;9.13;76.84
71643;BME280;59438;45.014;39.006;2023-05-03T02:36:29;102438.38;;;9.15;76.49
71643;BME280;59438;45.014;39.006;2023-05-03T02:38:55;102433.97;;;9.15;76.22
71643;BME280;59438;45.014;39.006;2023-05-03T02:41:21;102443.59;;;9.18;77.32
71643;BME280;59438;45.014;39.006;2023-05-03T02:43:48;102435.72;;;9.21;77.10
71643;BME280;59438;45.014;39.006;2023-05-03T02:46:14;102446.19;;;9.24;76.97
71643;BME280;59438;45.014;39.006;2023-05-03T02:48:42;102446.19;;;9.27;78.05
71643;BME280;59438;45.014;39.006;2023-05-03T02:51:08;102442.66;;;9.30;77.73
71643;BME280;59438;45.014;39.006;2023-05-03T02:53:34;102448.78;;;9.33;77.63
71643;BME280;59438;45.014;39.006;2023-05-03T02:56:01;102443.50;;;9.36;78.27
71643;BME280;59438;45.014;39.006;2023-05-03T02:58:27;102447.91;;;9.36;77.72
71643;BME280;59438;45.014;39.006;2023-05-03T03:00:54;102451.38;;;9.35;78.41
71643;BME280;59438;45.014;39.006;2023-05-03T03:03:20;102459.25;;;9.39;77.85
71643;BME280;59438;45.014;39.006;2023-05-03T03:05:48;102452.25;;;9.41;78.30
71643;BME280;59438;45.014;39.006;2023-05-03T03:08:14;102451.34;;;9.42;78.75
71643;BME280;59438;45.014;39.006;2023-05-03T03:10:40;102455.72;;;9.43;78.78
71643;BME280;59438;45.014;39.006;2023-05-03T03:13:07;102454.84;;;9.46;79.15
71643;BME280;59438;45.014;39.006;2023-05-03T03:15:33;102461.81;;;9.48;78.60
71643;BME280;59438;45.014;39.006;2023-05-03T03:17:59;102455.72;;;9.50;78.51
71643;BME280;59438;45.014;39.006;2023-05-03T03:20:26;102464.44;;;9.52;79.18
71643;BME280;59438;45.014;39.006;2023-05-03T03:22:54;102461.78;;;9.53;79.40
71643;BME280;59438;45.014;39.006;2023-05-03T03:25:20;102467.03;;;9.55;79.21
71643;BME280;59438;45.014;39.006;2023-05-03T03:27:46;102466.16;;;9.54;78.76
71643;BME280;59438;45.014;39.006;2023-05-03T03:30:13;102463.53;;;9.53;78.98
71643;BME280;59438;45.014;39.006;2023-05-03T03:32:39;102476.66;;;9.54;78.60
71643;BME280;59438;45.014;39.006;2023-05-03T03:35:07;102476.66;;;9.56;78.80
71643;BME280;59438;45.014;39.006;2023-05-03T03:37:33;102467.91;;;9.57;79.31
71643;BME280;59438;45.014;39.006;2023-05-03T03:40:01;102479.25;;;9.59;79.58
71643;BME280;59438;45.014;39.006;2023-05-03T03:42:28;102473.16;;;9.60;78.89
71643;BME280;59438;45.014;39.006;2023-05-03T03:44:54;102466.13;;;9.63;78.53
71643;BME280;59438;45.014;39.006;2023-05-03T03:47:20;102468.75;;;9.66;79.05
71643;BME280;59438;45.014;39.006;2023-05-03T03:49:47;102471.31;;;9.69;79.36
71643;BME280;59438;45.014;39.006;2023-05-03T03:52:13;102472.19;;;9.73;79.68
71643;BME280;59438;45.014;39.006;2023-05-03T03:54:39;102484.41;;;9.77;78.62
71643;BME280;59438;45.014;39.006;2023-05-03T03:57:07;102482.66;;;9.81;79.79
71643;BME280;59438;45.014;39.006;2023-05-03T03:59:33;102483.53;;;9.83;79.07
71643;BME280;59438;45.014;39.006;2023-05-03T04:02:00;102479.13;;;9.86;79.16
71643;BME280;59438;45.014;39.006;2023-05-03T04:04:26;102483.50;;;9.91;79.38
71643;BME280;59438;45.014;39.006;2023-05-03T04:06:52;102474.72;;;9.95;79.51
71643;BME280;59438;45.014;39.006;2023-05-03T04:09:19;102484.31;;;9.99;79.35
71643;BME280;59438;45.014;39.006;2023-05-03T04:11:45;102484.28;;;10.03;78.84
71643;BME280;59438;45.014;39.006;2023-05-03T04:14:13;102485.13;;;10.07;79.69
71643;BME280;59438;45.014;39.006;2023-05-03T04:16:39;102478.97;;;10.09;79.22
71643;BME280;59438;45.014;39.006;2023-05-03T04:19:06;102487.72;;;10.13;79.17
71643;BME280;59438;45.014;39.006;2023-05-03T04:21:32;102479.81;;;10.16;78.95
71643;BME280;59438;45.014;39.006;2023-05-03T04:23:58;102479.75;;;10.21;79.80
71643;BME280;59438;45.014;39.006;2023-05-03T04:26:25;102483.25;;;10.24;79.55
71643;BME280;59438;45.014;39.006;2023-05-03T04:28:51;102484.13;;;10.26;78.78
71643;BME280;59438;45.014;39.006;2023-05-03T04:31:19;102485.00;;;10.32;79.67
71643;BME280;59438;45.014;39.006;2023-05-03T04:33:45;102482.34;;;10.35;79.34
71643;BME280;59438;45.014;39.006;2023-05-03T04:36:11;102470.06;;;10.35;79.70
71643;BME280;59438;45.014;39.006;2023-05-03T04:38:38;102484.03;;;10.40;79.87
71643;BME280;59438;45.014;39.006;2023-05-03T04:41:04;102483.13;;;10.46;79.38
71643;BME280;59438;45.014;39.006;2023-05-03T04:43:31;102498.84;;;10.49;78.92
71643;BME280;59438;45.014;39.006;2023-05-03T04:45:57;102493.56;;;10.52;79.16
71643;BME280;59438;45.014;39.006;2023-05-03T04:48:25;102490.03;;;10.56;80.12
71643;BME280;59438;45.014;39.006;2023-05-03T04:50:51;102490.00;;;10.59;78.60
71643;BME280;59438;45.014;39.006;2023-05-03T04:53:17;102496.97;;;10.65;79.05
71643;BME280;59438;45.014;39.006;2023-05-03T04:55:44;102489.06;;;10.69;79.07
71643;BME280;59438;45.014;39.006;2023-05-03T04:58:10;102497.78;;;10.73;78.45
71643;BME280;59438;45.014;39.006;2023-05-03T05:00:36;102491.63;;;10.76;79.22
71643;BME280;59438;45.014;39.006;2023-05-03T05:03:03;102495.97;;;10.78;78.88
71643;BME280;59438;45.014;39.006;2023-05-03T05:05:31;102500.31;;;10.81;79.67
71643;BME280;59438;45.014;39.006;2023-05-03T05:07:57;102500.34;;;10.79;79.20
71643;BME280;59438;45.014;39.006;2023-05-03T05:10:23;102505.53;;;10.87;78.43
71643;BME280;59438;45.014;39.006;2023-05-03T05:12:50;102497.63;;;10.92;78.99
71643;BME280;59438;45.014;39.006;2023-05-03T05:15:17;102494.03;;;10.97;78.54
71643;BME280;59438;45.014;39.006;2023-05-03T05:17:43;102493.09;;;11.04;78.32
71643;BME280;59438;45.014;39.006;2023-05-03T05:20:10;102500.06;;;11.10;78.29
71643;BME280;59438;45.014;39.006;2023-05-03T05:22:38;102494.69;;;11.18;79.13
71643;BME280;59438;45.014;39.006;2023-05-03T05:25:06;102491.97;;;11.25;78.91
71643;BME280;59438;45.014;39.006;2023-05-03T05:27:33;102491.00;;;11.34;78.49
71643;BME280;59438;45.014;39.006;2023-05-03T05:29:59;102497.94;;;11.43;78.03
71643;BME280;59438;45.014;39.006;2023-05-03T05:32:25;102509.25;;;11.49;78.01
71643;BME280;59438;45.014;39.006;2023-05-03T05:34:52;102515.34;;;11.53;78.05
71643;BME280;59438;45.014;39.006;2023-05-03T05:37:18;102521.41;;;11.58;77.67
71643;BME280;59438;45.014;39.006;2023-05-03T05:39:46;102524.03;;;11.60;77.68
71643;BME280;59438;45.014;39.006;2023-05-03T05:42:12;102522.25;;;11.62;77.55
71643;BME280;59438;45.014;39.006;2023-05-03T05:44:39;102523.06;;;11.67;77.18
71643;BME280;59438;45.014;39.006;2023-05-03T05:47:05;102515.06;;;11.73;77.28
71643;BME280;59438;45.014;39.006;2023-05-03T05:49:31;102518.47;;;11.83;77.51
71643;BME280;59438;45.014;39.006;2023-05-03T05:51:58;102517.47;;;11.95;77.04
71643;BME280;59438;45.014;39.006;2023-05-03T05:54:24;102519.03;;;12.06;77.30
71643;BME280;59438;45.014;39.006;2023-05-03T05:56:52;102508.38;;;12.17;77.22
71643;BME280;59438;45.014;39.006;2023-05-03T05:59:18;102512.53;;;12.30;76.95
71643;BME280;59438;45.014;39.006;2023-05-03T06:01:45;102510.47;;;12.51;76.28
71643;BME280;59438;45.014;39.006;2023-05-03T06:04:12;102512.75;;;12.73;75.88
71643;BME280;59438;45.014;39.006;2023-05-03T06:06:38;102518.59;;;12.90;75.85
71643;BME280;59438;45.014;39.006;2023-05-03T06:09:05;102512.22;;;13.03;75.28
71643;BME280;59438;45.014;39.006;2023-05-03T06:11:31;102510.31;;;13.12;75.04
71643;BME280;59438;45.014;39.006;2023-05-03T06:13:59;102517.03;;;13.26;74.84
71643;BME280;59438;45.014;39.006;2023-05-03T06:16:26;102515.91;;;13.40;74.54
71643;BME280;59438;45.014;39.006;2023-05-03T06:18:52;102518.84;;;13.69;74.36
71643;BME280;59438;45.014;39.006;2023-05-03T06:21:19;102518.75;;;14.13;73.78
71643;BME280;59438;45.014;39.006;2023-05-03T06:23:45;102515.56;;;14.36;72.68
71643;BME280;59438;45.014;39.006;2023-05-03T06:26:11;102513.63;;;14.43;72.16
71643;BME280;59438;45.014;39.006;2023-05-03T06:28:38;102511.06;;;14.41;71.77
71643;BME280;59438;45.014;39.006;2023-05-03T06:31:05;102514.53;;;14.43;71.44
71643;BME280;59438;45.014;39.006;2023-05-03T06:33:32;102505.78;;;14.41;72.14
71643;BME280;59438;45.014;39.006;2023-05-03T06:35:58;102506.31;;;14.54;71.87
71643;BME280;59438;45.014;39.006;2023-05-03T06:38:25;102508.91;;;14.57;72.02
71643;BME280;59438;45.014;39.006;2023-05-03T06:40:51;102504.47;;;14.58;71.95
71643;BME280;59438;45.014;39.006;2023-05-03T06:43:17;102506.25;;;14.57;71.69
71643;BME280;59438;45.014;39.006;2023-05-03T06:45:44;102504.53;;;14.55;71.87
71643;BME280;59438;45.014;39.006;2023-05-03T06:48:11;102507.19;;;14.55;71.27
71643;BME280;59438;45.014;39.006;2023-05-03T06:50:38;102503.63;;;14.57;71.53
71643;BME280;59438;45.014;39.006;2023-05-03T06:53:04;102500.00;;;14.61;71.54
71643;BME280;59438;45.014;39.006;2023-05-03T06:55:30;102501.78;;;14.61;71.40
71643;BME280;59438;45.014;39.006;2023-05-03T06:57:57;102497.44;;;14.58;71.25
71643;BME280;59438;45.014;39.006;2023-05-03T07:00:23;102492.06;;;14.61;71.40
71643;BME280;59438;45.014;39.006;2023-05-03T07:02:50;102506.94;;;14.65;71.42
71643;BME280;59438;45.014;39.006;2023-05-03T07:05:18;102498.03;;;14.69;70.91
71643;BME280;59438;45.014;39.006;2023-05-03T07:07:44;102501.47;;;14.73;70.73
71643;BME280;59438;45.014;39.006;2023-05-03T07:10:10;102497.03;;;14.74;70.98
71643;BME280;59438;45.014;39.006;2023-05-03T07:12:37;102507.28;;;14.86;70.89
71643;BME280;59438;45.014;39.006;2023-05-03T07:15:03;102496.53;;;14.94;70.52
71643;BME280;59438;45.014;39.006;2023-05-03T07:17:30;102504.00;;;15.10;70.16
71643;BME280;59438;45.014;39.006;2023-05-03T07:19:56;102501.78;;;15.26;70.68
71643;BME280;59438;45.014;39.006;2023-05-03T07:22:24;102495.00;;;15.47;69.91
71643;BME280;59438;45.014;39.006;2023-05-03T07:24:51;102497.94;;;15.68;69.67
71643;BME280;59438;45.014;39.006;2023-05-03T07:27:17;102503.75;;;15.81;69.35
71643;BME280;59438;45.014;39.006;2023-05-03T07:29:43;102499.13;;;15.87;68.58
71643;BME280;59438;45.014;39.006;2023-05-03T07:32:09;102495.47;;;15.91;68.39
71643;BME280;59438;45.014;39.006;2023-05-03T07:34:36;102498.09;;;15.93;68.61
71643;BME280;59438;45.014;39.006;2023-05-03T07:37:02;102499.94;;;15.89;67.75
71643;BME280;59438;45.014;39.006;2023-05-03T07:39:30;102501.06;;;15.82;67.98
71643;BME280;59438;45.014;39.006;2023-05-03T07:41:56;102495.03;;;15.77;67.72
71643;BME280;59438;45.014;39.006;2023-05-03T07:44:23;102494.94;;;15.80;66.75
71643;BME280;59438;45.014;39.006;2023-05-03T07:46:49;102493.97;;;15.83;67.14
71643;BME280;59438;45.014;39.006;2023-05-03T07:49:15;102493.84;;;15.87;66.72
71643;BME280;59438;45.014;39.006;2023-05-03T07:51:42;102478.94;;;15.83;66.92
71643;BME280;59438;45.014;39.006;2023-05-03T07:54:08;102490.59;;;16.06;66.18
71643;BME280;59438;45.014;39.006;2023-05-03T07:56:36;102501.84;;;16.14;65.72
71643;BME280;59438;45.014;39.006;2023-05-03T07:59:02;102497.31;;;16.18;65.88
71643;BME280;59438;45.014;39.006;2023-05-03T08:01:28;102495.59;;;16.17;65.64
71643;BME280;59438;45.014;39.006;2023-05-03T08:03:55;102484.22;;;16.13;65.36
71643;BME280;59438;45.014;39.006;2023-05-03T08:06:21;102497.50;;;16.11;65.13
71643;BME280;59438;45.014;39.006;2023-05-03T08:08:47;102494.19;;;16.05;65.19
71643;BME280;59438;45.014;39.006;2023-05-03T08:11:14;102495.91;;;16.06;65.18
71643;BME280;59438;45.014;39.006;2023-05-03T08:13:41;102489.78;;;16.04;65.01
71643;BME280;59438;45.014;39.006;2023-05-03T08:16:08;102490.75;;;16.01;65.44
71643;BME280;59438;45.014;39.006;2023-05-03T08:18:35;102493.44;;;16.00;65.46
71643;BME280;59438;45.014;39.006;2023-05-03T08:21:01;102489.13;;;15.97;65.20
71643;BME280;59438;45.014;39.006;2023-05-03T08:23:27;102487.44;;;15.95;64.98
71643;BME280;59438;45.014;39.006;2023-05-03T08:25:54;102492.78;;;15.93;64.86
71643;BME280;59438;45.014;39.006;2023-05-03T08:28:20;102486.63;;;15.93;64.79
71643;BME280;59438;45.014;39.006;2023-05-03T08:30:48;102480.34;;;15.95;64.77
71643;BME280;59438;45.014;39.006;2023-05-03T08:33:14;102492.59;;;15.99;64.92
71643;BME280;59438;45.014;39.006;2023-05-03T08:35:40;102474.97;;;15.98;63.93
71643;BME280;59438;45.014;39.006;2023-05-03T08:38:07;102471.97;;;16.09;63.59
71643;BME280;59438;45.014;39.006;2023-05-03T08:40:33;102482.03;;;16.26;63.33
71643;BME280;59438;45.014;39.006;2023-05-03T08:43:05;102476.16;;;16.43;62.48
71643;BME280;59438;45.014;39.006;2023-05-03T08:45:32;102476.44;;;16.62;63.08
71643;BME280;59438;45.014;39.006;2023-05-03T08:48:00;102472.22;;;16.81;61.82
71643;BME280;59438;45.014;39.006;2023-05-03T08:50:27;102464.47;;;17.00;62.18
71643;BME280;59438;45.014;39.006;2023-05-03T08:52:53;102463.03;;;17.15;61.81
71643;BME280;59438;45.014;39.006;2023-05-03T08:55:20;102466.00;;;17.31;61.63
71643;BME280;59438;45.014;39.006;2023-05-03T08:57:46;102465.66;;;17.40;61.46
71643;BME280;59438;45.014;39.006;2023-05-03T09:00:13;102464.53;;;17.46;61.25
71643;BME280;59438;45.014;39.006;2023-05-03T09:02:40;102468.00;;;17.48;61.31
71643;BME280;59438;45.014;39.006;2023-05-03T09:05:30;102472.28;;;17.52;59.52
71643;BME280;59438;45.014;39.006;2023-05-03T09:08:00;102467.84;;;17.52;59.46
71643;BME280;59438;45.014;39.006;2023-05-03T09:10:27;102461.66;;;17.52;60.26
71643;BME280;59438;45.014;39.006;2023-05-03T09:12:57;102463.28;;;17.56;59.24
71643;BME280;59438;45.014;39.006;2023-05-03T09:15:23;102459.47;;;17.63;60.76
71643;BME280;59438;45.014;39.006;2023-05-03T09:18:06;102460.47;;;17.61;59.21
71643;BME280;59438;45.014;39.006;2023-05-03T09:20:35;102455.25;;;17.58;59.31
71643;BME280;59438;45.014;39.006;2023-05-03T09:23:02;102450.13;;;17.53;59.47
71643;BME280;59438;45.014;39.006;2023-05-03T09:25:39;102448.56;;;17.47;58.29
71643;BME280;59438;45.014;39.006;2023-05-03T09:28:06;102446.94;;;17.43;59.68
71643;BME280;59438;45.014;39.006;2023-05-03T09:30:32;102446.09;;;17.43;59.87
71643;BME280;59438;45.014;39.006;2023-05-03T09:32:58;102455.94;;;17.39;59.98
71643;BME280;59438;45.014;39.006;2023-05-03T09:35:25;102450.69;;;17.38;59.78
71643;BME280;59438;45.014;39.006;2023-05-03T09:37:52;102455.28;;;17.34;59.99
71643;BME280;59438;45.014;39.006;2023-05-03T09:40:19;102451.69;;;17.35;60.36
71643;BME280;59438;45.014;39.006;2023-05-03T09:43:07;102447.19;;;17.37;58.59
71643;BME280;59438;45.014;39.006;2023-05-03T09:45:34;102446.28;;;17.38;59.93
71643;BME280;59438;45.014;39.006;2023-05-03T09:48:01;102440.78;;;17.43;59.23
71643;BME280;59438;45.014;39.006;2023-05-03T09:50:29;102444.19;;;17.46;59.96
71643;BME280;59438;45.014;39.006;2023-05-03T09:53:00;102444.06;;;17.49;58.37
71643;BME280;59438;45.014;39.006;2023-05-03T09:55:27;102439.44;;;17.55;59.86
71643;BME280;59438;45.014;39.006;2023-05-03T09:57:56;102447.91;;;17.64;59.41
71643;BME280;59438;45.014;39.006;2023-05-03T10:00:23;102441.38;;;17.73;59.11
71643;BME280;59438;45.014;39.006;2023-05-03T10:02:53;102440.03;;;17.85;58.53
71643;BME280;59438;45.014;39.006;2023-05-03T10:05:20;102433.66;;;17.89;58.29
71643;BME280;59438;45.014;39.006;2023-05-03T10:07:49;102433.50;;;17.94;57.95
71643;BME280;59438;45.014;39.006;2023-05-03T10:10:20;102441.16;;;18.01;57.26
71643;BME280;59438;45.014;39.006;2023-05-03T10:12:46;102438.22;;;18.07;58.35
71643;BME280;59438;45.014;39.006;2023-05-03T10:15:14;102444.19;;;18.14;57.66
71643;BME280;59438;45.014;39.006;2023-05-03T10:17:42;102442.19;;;18.19;57.70
71643;BME280;59438;45.014;39.006;2023-05-03T10:20:14;102438.63;;;18.20;57.24
71643;BME280;59438;45.014;39.006;2023-05-03T10:23:07;102444.75;;;18.22;57.44
71643;BME280;59438;45.014;39.006;2023-05-03T10:25:36;102430.69;;;18.19;57.41
71643;BME280;59438;45.014;39.006;2023-05-03T10:28:04;102435.81;;;18.23;57.75
71643;BME280;59438;45.014;39.006;2023-05-03T10:30:31;102444.47;;;18.28;57.61
71643;BME280;59438;45.014;39.006;2023-05-03T10:32:58;102439.88;;;18.32;57.22
71643;BME280;59438;45.014;39.006;2023-05-03T10:35:28;102455.72;;;18.35;57.23
71643;BME280;59438;45.014;39.006;2023-05-03T10:37:55;102446.69;;;18.39;58.07
71643;BME280;59438;45.014;39.006;2023-05-03T10:40:21;102437.63;;;18.43;57.67
71643;BME280;59438;45.014;39.006;2023-05-03T10:42:51;102431.53;;;18.41;56.68
71643;BME280;59438;45.014;39.006;2023-05-03T10:45:23;102430.38;;;18.47;57.02
71643;BME280;59438;45.014;39.006;2023-05-03T10:48:15;102427.59;;;18.50;55.91
71643;BME280;59438;45.014;39.006;2023-05-03T10:50:41;102422.34;;;18.48;56.51
71643;BME280;59438;45.014;39.006;2023-05-03T10:53:37;102423.97;;;18.51;55.69
71643;BME280;59438;45.014;39.006;2023-05-03T10:56:05;102421.53;;;18.46;56.71
71643;BME280;59438;45.014;39.006;2023-05-03T10:58:35;102420.94;;;18.40;55.95
71643;BME280;59438;45.014;39.006;2023-05-03T11:01:02;102409.69;;;18.33;56.44
71643;BME280;59438;45.014;39.006;2023-05-03T11:03:54;102407.16;;;18.30;55.17
71643;BME280;59438;45.014;39.006;2023-05-03T11:06:29;102406.63;;;18.22;56.36
71643;BME280;59438;45.014;39.006;2023-05-03T11:08:56;102400.69;;;18.15;57.06
71643;BME280;59438;45.014;39.006;2023-05-03T11:11:22;102412.44;;;18.09;57.08
71643;BME280;59438;45.014;39.006;2023-05-03T11:13:51;102412.53;;;18.08;56.46
71643;BME280;59438;45.014;39.006;2023-05-03T11:16:18;102412.59;;;18.06;57.28
71643;BME280;59438;45.014;39.006;2023-05-03T11:18:44;102415.19;;;18.08;56.80
71643;BME280;59438;45.014;39.006;2023-05-03T11:21:11;102417.72;;;18.11;56.50
71643;BME280;59438;45.014;39.006;2023-05-03T11:23:38;102415.84;;;18.13;56.34
71643;BME280;59438;45.014;39.006;2023-05-03T11:26:05;102410.41;;;18.16;56.92
71643;BME280;59438;45.014;39.006;2023-05-03T11:28:32;102401.44;;;18.19;56.71
71643;BME280;59438;45.014;39.006;2023-05-03T11:30:59;102405.75;;;18.21;56.01
71643;BME280;59438;45.014;39.006;2023-05-03T11:33:26;102403.16;;;18.20;56.31
71643;BME280;59438;45.014;39.006;2023-05-03T11:35:54;102402.44;;;18.16;56.79
71643;BME280;59438;45.014;39.006;2023-05-03T11:38:20;102396.38;;;18.12;57.00
71643;BME280;59438;45.014;39.006;2023-05-03T11:40:47;102392.97;;;18.09;56.84
71643;BME280;59438;45.014;39.006;2023-05-03T11:43:13;102381.78;;;18.01;56.38
71643;BME280;59438;45.014;39.006;2023-05-03T11:45:42;102387.84;;;18.04;55.47
71643;BME280;59438;45.014;39.006;2023-05-03T11:48:11;102387.16;;;17.99;55.80
71643;BME280;59438;45.014;39.006;2023-05-03T11:50:45;102391.78;;;17.96;55.50
71643;BME280;59438;45.014;39.006;2023-05-03T11:53:12;102399.91;;;17.91;56.97
71643;BME280;59438;45.014;39.006;2023-05-03T11:55:40;102397.50;;;17.85;56.94
71643;BME280;59438;45.014;39.006;2023-05-03T11:58:08;102387.84;;;17.82;56.70
71643;BME280;59438;45.014;39.006;2023-05-03T12:00:35;102381.06;;;17.75;56.36
71643;BME280;59438;45.014;39.006;2023-05-03T12:03:02;102383.63;;;17.77;56.40
71643;BME280;59438;45.014;39.006;2023-05-03T12:05:29;102383.81;;;17.72;56.65
71643;BME280;59438;45.014;39.006;2023-05-03T12:07:56;102381.31;;;17.69;56.63
71643;BME280;59438;45.014;39.006;2023-05-03T12:10:22;102385.72;;;17.68;56.13
71643;BME280;59438;45.014;39.006;2023-05-03T12:12:56;102385.72;;;17.68;55.85
71643;BME280;59438;45.014;39.006;2023-05-03T12:15:27;102383.97;;;17.69;55.68
71643;BME280;59438;45.014;39.006;2023-05-03T12:17:55;102380.41;;;17.68;56.05
71643;BME280;59438;45.014;39.006;2023-05-03T12:20:22;102382.03;;;17.72;56.06
71643;BME280;59438;45.014;39.006;2023-05-03T12:22:52;102388.22;;;17.73;56.18
71643;BME280;59438;45.014;39.006;2023-05-03T12:25:18;102387.28;;;17.74;56.52
71643;BME280;59438;45.014;39.006;2023-05-03T12:27:45;102380.13;;;17.76;56.96
71643;BME280;59438;45.014;39.006;2023-05-03T12:30:12;102376.47;;;17.79;56.80
71643;BME280;59438;45.014;39.006;2023-05-03T12:32:39;102383.47;;;17.81;56.23
71643;BME280;59438;45.014;39.006;2023-05-03T12:35:06;102380.81;;;17.81;56.28
71643;BME280;59438;45.014;39.006;2023-05-03T12:37:32;102371.88;;;17.82;56.41
71643;BME280;59438;45.014;39.006;2023-05-03T12:40:01;102369.16;;;17.85;56.40
71643;BME280;59438;45.014;39.006;2023-05-03T12:42:27;102359.19;;;17.90;56.61
71643;BME280;59438;45.014;39.006;2023-05-03T12:44:56;102366.09;;;17.95;55.45